sensor_id;sensor_type;location;lat;lon;timestamp;P1;durP1;ratioP1;P2;durP2;ratioP2
10902;SDS011;5504;47.312;11.060;2023-09-07T00:02:21;6.83;;;6.13;;
10902;SDS011;5504;47.312;11.060;2023-09-07T00:04:47;7.57;;;6.40;;
10902;SDS011;5504;47.312;11.060;2023-09-07T00:07:12;6.73;;;6.03;;
10902;SDS011;5504;47.312;11.060;2023-09-07T00:09:38;6.80;;;6.20;;
10902;SDS011;5504;47.312;11.060;2023-09-07T00:12:04;7.10;;;5.83;;
10902;SDS011;5504;47.312;11.060;2023-09-07T00:14:30;6.23;;;5.63;;
10902;SDS011;5504;47.312;11.060;2023-09-07T00:16:55;6.63;;;5.70;;
10902;SDS011;5504;47.312;11.060;2023-09-07T00:19:22;6.30;;;5.70;;
10902;SDS011;5504;47.312;11.060;2023-09-07T00:21:47;6.73;;;6.03;;
10902;SDS011;5504;47.312;11.060;2023-09-07T00:24:13;8.17;;;5.97;;
10902;SDS011;5504;47.312;11.060;2023-09-07T00:26:41;5.80;;;5.30;;
10902;SDS011;5504;47.312;11.060;2023-09-07T00:29:06;6.77;;;6.07;;
10902;SDS011;5504;47.312;11.060;2023-09-07T00:31:32;7.13;;;6.03;;
10902;SDS011;5504;47.312;11.060;2023-09-07T00:33:58;6.60;;;6.00;;
10902;SDS011;5504;47.312;11.060;2023-09-07T00:36:23;6.60;;;5.90;;
10902;SDS011;5504;47.312;11.060;2023-09-07T00:38:49;6.73;;;6.13;;
10902;SDS011;5504;47.312;11.060;2023-09-07T00:41:15;7.23;;;6.17;;
10902;SDS011;5504;47.312;11.060;2023-09-07T00:43:40;6.67;;;6.07;;
10902;SDS011;5504;47.312;11.060;2023-09-07T00:46:06;6.30;;;5.50;;
10902;SDS011;5504;47.312;11.060;2023-09-07T00:48:32;6.67;;;5.97;;
10902;SDS011;5504;47.312;11.060;2023-09-07T00:50:59;5.97;;;5.40;;
10902;SDS011;5504;47.312;11.060;2023-09-07T00:53:26;7.53;;;6.00;;
10902;SDS011;5504;47.312;11.060;2023-09-07T00:55:53;6.30;;;5.70;;
10902;SDS011;5504;47.312;11.060;2023-09-07T00:58:20;8.20;;;6.23;;
10902;SDS011;5504;47.312;11.060;2023-09-07T01:00:46;6.40;;;5.70;;
10902;SDS011;5504;47.312;11.060;2023-09-07T01:03:13;6.63;;;5.87;;
10902;SDS011;5504;47.312;11.060;2023-09-07T01:05:52;6.70;;;6.00;;
10902;SDS011;5504;47.312;11.060;2023-09-07T01:08:39;6.80;;;6.20;;
10902;SDS011;5504;47.312;11.060;2023-09-07T01:11:35;6.60;;;5.97;;
10902;SDS011;5504;47.312;11.060;2023-09-07T01:14:02;6.90;;;6.20;;
10902;SDS011;5504;47.312;11.060;2023-09-07T01:16:29;7.57;;;6.37;;
10902;SDS011;5504;47.312;11.060;2023-09-07T01:18:56;7.47;;;6.77;;
10902;SDS011;5504;47.312;11.060;2023-09-07T01:21:22;6.63;;;6.00;;
10902;SDS011;5504;47.312;11.060;2023-09-07T01:23:49;7.10;;;6.33;;
10902;SDS011;5504;47.312;11.060;2023-09-07T01:26:15;6.80;;;6.10;;
10902;SDS011;5504;47.312;11.060;2023-09-07T01:28:41;7.37;;;6.63;;
10902;SDS011;5504;47.312;11.060;2023-09-07T01:31:07;7.37;;;5.77;;
10902;SDS011;5504;47.312;11.060;2023-09-07T01:33:32;7.13;;;6.37;;
10902;SDS011;5504;47.312;11.060;2023-09-07T01:35:58;6.83;;;6.13;;
10902;SDS011;5504;47.312;11.060;2023-09-07T01:38:24;6.90;;;6.30;;
10902;SDS011;5504;47.312;11.060;2023-09-07T01:40:50;6.97;;;6.27;;
10902;SDS011;5504;47.312;11.060;2023-09-07T01:43:15;7.17;;;6.47;;
10902;SDS011;5504;47.312;11.060;2023-09-07T01:45:41;6.63;;;6.03;;
10902;SDS011;5504;47.312;11.060;2023-09-07T01:48:08;6.87;;;6.20;;
10902;SDS011;5504;47.312;11.060;2023-09-07T01:50:35;7.37;;;6.40;;
10902;SDS011;5504;47.312;11.060;2023-09-07T01:53:01;7.00;;;6.30;;
10902;SDS011;5504;47.312;11.060;2023-09-07T01:55:28;7.17;;;6.37;;
10902;SDS011;5504;47.312;11.060;2023-09-07T01:57:54;8.13;;;6.40;;
10902;SDS011;5504;47.312;11.060;2023-09-07T02:00:20;7.20;;;6.50;;
10902;SDS011;5504;47.312;11.060;2023-09-07T02:02:45;6.93;;;6.23;;
10902;SDS011;5504;47.312;11.060;2023-09-07T02:05:11;7.00;;;6.30;;
10902;SDS011;5504;47.312;11.060;2023-09-07T02:07:37;7.00;;;6.30;;
10902;SDS011;5504;47.312;11.060;2023-09-07T02:10:03;7.67;;;6.43;;
10902;SDS011;5504;47.312;11.060;2023-09-07T02:12:30;7.30;;;6.60;;
10902;SDS011;5504;47.312;11.060;2023-09-07T02:14:55;7.40;;;6.20;;
10902;SDS011;5504;47.312;11.060;2023-09-07T02:17:21;6.80;;;6.20;;
10902;SDS011;5504;47.312;11.060;2023-09-07T02:19:47;6.90;;;6.20;;
10902;SDS011;5504;47.312;11.060;2023-09-07T02:22:13;7.37;;;6.60;;
10902;SDS011;5504;47.312;11.060;2023-09-07T02:24:38;7.17;;;6.47;;
10902;SDS011;5504;47.312;11.060;2023-09-07T02:27:04;7.10;;;6.40;;
10902;SDS011;5504;47.312;11.060;2023-09-07T02:29:30;7.90;;;6.47;;
10902;SDS011;5504;47.312;11.060;2023-09-07T02:31:55;7.43;;;6.20;;
10902;SDS011;5504;47.312;11.060;2023-09-07T02:34:22;7.50;;;6.80;;
10902;SDS011;5504;47.312;11.060;2023-09-07T02:36:48;7.77;;;6.27;;
10902;SDS011;5504;47.312;11.060;2023-09-07T02:39:14;8.53;;;6.37;;
10902;SDS011;5504;47.312;11.060;2023-09-07T02:41:40;6.90;;;6.20;;
10902;SDS011;5504;47.312;11.060;2023-09-07T02:44:05;7.60;;;6.70;;
10902;SDS011;5504;47.312;11.060;2023-09-07T02:46:31;6.93;;;6.23;;
10902;SDS011;5504;47.312;11.060;2023-09-07T02:48:57;7.47;;;6.77;;
10902;SDS011;5504;47.312;11.060;2023-09-07T02:51:23;6.83;;;6.20;;
10902;SDS011;5504;47.312;11.060;2023-09-07T02:53:49;7.30;;;6.33;;
10902;SDS011;5504;47.312;11.060;2023-09-07T02:56:15;7.57;;;6.70;;
10902;SDS011;5504;47.312;11.060;2023-09-07T02:58:41;7.00;;;6.30;;
10902;SDS011;5504;47.312;11.060;2023-09-07T03:01:07;7.30;;;6.60;;
10902;SDS011;5504;47.312;11.060;2023-09-07T03:03:36;7.33;;;6.63;;
10902;SDS011;5504;47.312;11.060;2023-09-07T03:06:12;8.57;;;6.43;;
10902;SDS011;5504;47.312;11.060;2023-09-07T03:08:42;6.67;;;6.03;;
10902;SDS011;5504;47.312;11.060;2023-09-07T03:11:08;7.10;;;6.40;;
10902;SDS011;5504;47.312;11.060;2023-09-07T03:13:34;6.87;;;6.17;;
10902;SDS011;5504;47.312;11.060;2023-09-07T03:16:01;7.93;;;6.57;;
10902;SDS011;5504;47.312;11.060;2023-09-07T03:18:28;6.97;;;6.13;;
10902;SDS011;5504;47.312;11.060;2023-09-07T03:20:54;7.73;;;6.97;;
10902;SDS011;5504;47.312;11.060;2023-09-07T03:23:21;8.37;;;7.37;;
10902;SDS011;5504;47.312;11.060;2023-09-07T03:25:47;9.70;;;7.73;;
10902;SDS011;5504;47.312;11.060;2023-09-07T03:28:13;7.70;;;6.83;;
10902;SDS011;5504;47.312;11.060;2023-09-07T03:30:39;8.00;;;7.20;;
10902;SDS011;5504;47.312;11.060;2023-09-07T03:33:05;8.07;;;7.27;;
10902;SDS011;5504;47.312;11.060;2023-09-07T03:35:31;7.33;;;6.50;;
10902;SDS011;5504;47.312;11.060;2023-09-07T03:37:57;7.70;;;6.83;;
10902;SDS011;5504;47.312;11.060;2023-09-07T03:40:23;7.03;;;6.33;;
10902;SDS011;5504;47.312;11.060;2023-09-07T03:42:49;7.70;;;6.90;;
10902;SDS011;5504;47.312;11.060;2023-09-07T03:45:15;9.27;;;6.47;;
10902;SDS011;5504;47.312;11.060;2023-09-07T03:47:41;6.97;;;6.37;;
10902;SDS011;5504;47.312;11.060;2023-09-07T03:50:07;8.73;;;6.73;;
10902;SDS011;5504;47.312;11.060;2023-09-07T03:52:33;7.60;;;6.80;;
10902;SDS011;5504;47.312;11.060;2023-09-07T03:55:00;8.60;;;6.90;;
10902;SDS011;5504;47.312;11.060;2023-09-07T03:57:26;7.63;;;6.83;;
10902;SDS011;5504;47.312;11.060;2023-09-07T03:59:52;7.47;;;6.70;;
10902;SDS011;5504;47.312;11.060;2023-09-07T04:02:20;7.13;;;6.43;;
10902;SDS011;5504;47.312;11.060;2023-09-07T04:04:49;8.60;;;6.93;;
10902;SDS011;5504;47.312;11.060;2023-09-07T04:07:19;6.93;;;6.23;;
10902;SDS011;5504;47.312;11.060;2023-09-07T04:09:45;7.37;;;6.43;;
10902;SDS011;5504;47.312;11.060;2023-09-07T04:12:11;6.57;;;5.87;;
10902;SDS011;5504;47.312;11.060;2023-09-07T04:14:37;7.47;;;6.63;;
10902;SDS011;5504;47.312;11.060;2023-09-07T04:17:03;7.07;;;6.30;;
10902;SDS011;5504;47.312;11.060;2023-09-07T04:19:30;6.80;;;6.10;;
10902;SDS011;5504;47.312;11.060;2023-09-07T04:21:59;7.00;;;6.30;;
10902;SDS011;5504;47.312;11.060;2023-09-07T04:24:25;6.97;;;6.33;;
10902;SDS011;5504;47.312;11.060;2023-09-07T04:26:52;7.87;;;6.80;;
10902;SDS011;5504;47.312;11.060;2023-09-07T04:29:18;7.07;;;6.37;;
10902;SDS011;5504;47.312;11.060;2023-09-07T04:31:44;7.10;;;6.40;;
10902;SDS011;5504;47.312;11.060;2023-09-07T04:34:10;7.33;;;6.63;;
10902;SDS011;5504;47.312;11.060;2023-09-07T04:36:35;7.00;;;6.30;;
10902;SDS011;5504;47.312;11.060;2023-09-07T04:39:01;7.60;;;6.90;;
10902;SDS011;5504;47.312;11.060;2023-09-07T04:41:28;7.87;;;6.60;;
10902;SDS011;5504;47.312;11.060;2023-09-07T04:43:54;8.00;;;6.67;;
10902;SDS011;5504;47.312;11.060;2023-09-07T04:46:21;8.47;;;7.13;;
10902;SDS011;5504;47.312;11.060;2023-09-07T04:48:47;7.63;;;6.80;;
10902;SDS011;5504;47.312;11.060;2023-09-07T04:51:13;7.77;;;6.97;;
10902;SDS011;5504;47.312;11.060;2023-09-07T04:53:39;7.33;;;6.20;;
10902;SDS011;5504;47.312;11.060;2023-09-07T04:56:05;7.37;;;6.63;;
10902;SDS011;5504;47.312;11.060;2023-09-07T04:58:33;7.00;;;6.30;;
10902;SDS011;5504;47.312;11.060;2023-09-07T05:01:02;7.23;;;6.50;;
10902;SDS011;5504;47.312;11.060;2023-09-07T05:03:33;6.57;;;5.97;;
10902;SDS011;5504;47.312;11.060;2023-09-07T05:05:59;7.03;;;6.30;;
10902;SDS011;5504;47.312;11.060;2023-09-07T05:08:25;7.50;;;6.70;;
10902;SDS011;5504;47.312;11.060;2023-09-07T05:10:58;8.50;;;6.10;;
10902;SDS011;5504;47.312;11.060;2023-09-07T05:13:25;6.97;;;6.30;;
10902;SDS011;5504;47.312;11.060;2023-09-07T05:15:51;7.00;;;6.30;;
10902;SDS011;5504;47.312;11.060;2023-09-07T05:18:18;7.77;;;6.87;;
10902;SDS011;5504;47.312;11.060;2023-09-07T05:20:45;8.97;;;6.80;;
10902;SDS011;5504;47.312;11.060;2023-09-07T05:23:14;6.40;;;5.80;;
10902;SDS011;5504;47.312;11.060;2023-09-07T05:25:47;7.73;;;6.87;;
10902;SDS011;5504;47.312;11.060;2023-09-07T05:28:18;7.13;;;6.43;;
10902;SDS011;5504;47.312;11.060;2023-09-07T05:30:46;6.93;;;6.23;;
10902;SDS011;5504;47.312;11.060;2023-09-07T05:33:13;7.17;;;6.47;;
10902;SDS011;5504;47.312;11.060;2023-09-07T05:35:40;8.03;;;6.50;;
10902;SDS011;5504;47.312;11.060;2023-09-07T05:38:07;8.30;;;7.23;;
10902;SDS011;5504;47.312;11.060;2023-09-07T05:40:34;7.57;;;6.83;;
10902;SDS011;5504;47.312;11.060;2023-09-07T05:43:03;7.93;;;7.13;;
10902;SDS011;5504;47.312;11.060;2023-09-07T05:45:41;7.73;;;6.93;;
10902;SDS011;5504;47.312;11.060;2023-09-07T05:48:07;9.50;;;7.23;;
10902;SDS011;5504;47.312;11.060;2023-09-07T05:50:33;8.23;;;7.40;;
10902;SDS011;5504;47.312;11.060;2023-09-07T05:53:00;7.70;;;6.90;;
10902;SDS011;5504;47.312;11.060;2023-09-07T05:55:26;10.17;;;7.23;;
10902;SDS011;5504;47.312;11.060;2023-09-07T05:57:54;7.60;;;6.77;;
10902;SDS011;5504;47.312;11.060;2023-09-07T06:00:20;8.97;;;6.77;;
10902;SDS011;5504;47.312;11.060;2023-09-07T06:02:46;7.67;;;6.67;;
10902;SDS011;5504;47.312;11.060;2023-09-07T06:05:13;7.17;;;6.47;;
10902;SDS011;5504;47.312;11.060;2023-09-07T06:07:39;7.43;;;6.70;;
10902;SDS011;5504;47.312;11.060;2023-09-07T06:10:04;7.97;;;6.93;;
10902;SDS011;5504;47.312;11.060;2023-09-07T06:12:31;8.07;;;6.70;;
10902;SDS011;5504;47.312;11.060;2023-09-07T06:15:00;7.20;;;6.50;;
10902;SDS011;5504;47.312;11.060;2023-09-07T06:17:27;7.90;;;6.70;;
10902;SDS011;5504;47.312;11.060;2023-09-07T06:19:53;6.93;;;6.27;;
10902;SDS011;5504;47.312;11.060;2023-09-07T06:22:19;8.63;;;6.93;;
10902;SDS011;5504;47.312;11.060;2023-09-07T06:24:45;7.77;;;6.70;;
10902;SDS011;5504;47.312;11.060;2023-09-07T06:27:10;6.97;;;6.27;;
10902;SDS011;5504;47.312;11.060;2023-09-07T06:29:36;7.00;;;6.30;;
10902;SDS011;5504;47.312;11.060;2023-09-07T06:32:02;7.27;;;6.47;;
10902;SDS011;5504;47.312;11.060;2023-09-07T06:34:27;6.90;;;6.30;;
10902;SDS011;5504;47.312;11.060;2023-09-07T06:36:53;8.23;;;6.75;;
10902;SDS011;5504;47.312;11.060;2023-09-07T06:39:19;8.48;;;6.70;;
10902;SDS011;5504;47.312;11.060;2023-09-07T06:41:45;8.20;;;7.00;;
10902;SDS011;5504;47.312;11.060;2023-09-07T06:44:11;6.95;;;6.25;;
10902;SDS011;5504;47.312;11.060;2023-09-07T06:46:37;7.20;;;6.50;;
10902;SDS011;5504;47.312;11.060;2023-09-07T06:49:03;6.70;;;6.07;;
10902;SDS011;5504;47.312;11.060;2023-09-07T06:51:30;7.05;;;6.13;;
10902;SDS011;5504;47.312;11.060;2023-09-07T06:53:56;6.85;;;6.15;;
10902;SDS011;5504;47.312;11.060;2023-09-07T06:56:21;6.25;;;5.65;;
10902;SDS011;5504;47.312;11.060;2023-09-07T06:58:47;7.85;;;5.90;;
10902;SDS011;5504;47.312;11.060;2023-09-07T07:01:13;6.78;;;6.15;;
10902;SDS011;5504;47.312;11.060;2023-09-07T07:03:39;7.07;;;6.10;;
10902;SDS011;5504;47.312;11.060;2023-09-07T07:06:04;7.50;;;6.25;;
10902;SDS011;5504;47.312;11.060;2023-09-07T07:08:30;7.25;;;6.55;;
10902;SDS011;5504;47.312;11.060;2023-09-07T07:10:56;7.47;;;6.13;;
10902;SDS011;5504;47.312;11.060;2023-09-07T07:13:21;7.20;;;6.50;;
10902;SDS011;5504;47.312;11.060;2023-09-07T07:15:47;6.55;;;5.95;;
10902;SDS011;5504;47.312;11.060;2023-09-07T07:18:13;6.60;;;5.93;;
10902;SDS011;5504;47.312;11.060;2023-09-07T07:20:39;6.40;;;5.72;;
10902;SDS011;5504;47.312;11.060;2023-09-07T07:23:06;7.10;;;6.35;;
10902;SDS011;5504;47.312;11.060;2023-09-07T07:25:32;6.40;;;5.80;;
10902;SDS011;5504;47.312;11.060;2023-09-07T07:27:59;6.43;;;5.82;;
10902;SDS011;5504;47.312;11.060;2023-09-07T07:30:29;33.95;;;10.65;;
10902;SDS011;5504;47.312;11.060;2023-09-07T07:32:55;6.50;;;5.90;;
10902;SDS011;5504;47.312;11.060;2023-09-07T07:35:21;7.57;;;6.25;;
10902;SDS011;5504;47.312;11.060;2023-09-07T07:37:48;6.07;;;5.47;;
10902;SDS011;5504;47.312;11.060;2023-09-07T07:40:14;7.32;;;6.00;;
10902;SDS011;5504;47.312;11.060;2023-09-07T07:42:40;8.73;;;5.97;;
10902;SDS011;5504;47.312;11.060;2023-09-07T07:45:07;6.60;;;5.90;;
10902;SDS011;5504;47.312;11.060;2023-09-07T07:47:33;6.28;;;5.40;;
10902;SDS011;5504;47.312;11.060;2023-09-07T07:49:58;6.13;;;5.53;;
10902;SDS011;5504;47.312;11.060;2023-09-07T07:52:24;5.97;;;5.38;;
10902;SDS011;5504;47.312;11.060;2023-09-07T07:54:51;6.72;;;5.82;;
10902;SDS011;5504;47.312;11.060;2023-09-07T07:57:16;7.47;;;5.82;;
10902;SDS011;5504;47.312;11.060;2023-09-07T07:59:42;6.30;;;5.47;;
10902;SDS011;5504;47.312;11.060;2023-09-07T08:02:07;6.07;;;5.57;;
10902;SDS011;5504;47.312;11.060;2023-09-07T08:04:33;6.32;;;5.75;;
10902;SDS011;5504;47.312;11.060;2023-09-07T08:07:00;7.28;;;5.97;;
10902;SDS011;5504;47.312;11.060;2023-09-07T08:09:30;6.95;;;5.85;;
10902;SDS011;5504;47.312;11.060;2023-09-07T08:11:56;6.32;;;5.70;;
10902;SDS011;5504;47.312;11.060;2023-09-07T08:14:22;6.57;;;5.97;;
10902;SDS011;5504;47.312;11.060;2023-09-07T08:16:49;6.00;;;5.40;;
10902;SDS011;5504;47.312;11.060;2023-09-07T08:19:15;5.90;;;5.40;;
10902;SDS011;5504;47.312;11.060;2023-09-07T08:21:41;5.80;;;5.30;;
10902;SDS011;5504;47.312;11.060;2023-09-07T08:24:07;6.35;;;5.70;;
10902;SDS011;5504;47.312;11.060;2023-09-07T08:26:35;6.25;;;5.63;;
10902;SDS011;5504;47.312;11.060;2023-09-07T08:29:01;6.50;;;5.85;;
10902;SDS011;5504;47.312;11.060;2023-09-07T08:31:40;5.97;;;5.43;;
10902;SDS011;5504;47.312;11.060;2023-09-07T08:34:06;6.18;;;5.57;;
10902;SDS011;5504;47.312;11.060;2023-09-07T08:36:36;6.05;;;5.45;;
10902;SDS011;5504;47.312;11.060;2023-09-07T08:39:03;6.15;;;5.55;;
10902;SDS011;5504;47.312;11.060;2023-09-07T08:41:38;6.15;;;5.55;;
10902;SDS011;5504;47.312;11.060;2023-09-07T08:44:13;6.38;;;5.50;;
10902;SDS011;5504;47.312;11.060;2023-09-07T08:46:44;6.07;;;5.57;;
10902;SDS011;5504;47.312;11.060;2023-09-07T08:49:10;6.13;;;5.53;;
10902;SDS011;5504;47.312;11.060;2023-09-07T08:51:37;7.32;;;5.32;;
10902;SDS011;5504;47.312;11.060;2023-09-07T08:54:04;6.28;;;5.68;;
10902;SDS011;5504;47.312;11.060;2023-09-07T08:56:30;5.95;;;5.35;;
10902;SDS011;5504;47.312;11.060;2023-09-07T08:58:56;6.13;;;5.50;;
10902;SDS011;5504;47.312;11.060;2023-09-07T09:01:22;6.13;;;5.53;;
10902;SDS011;5504;47.312;11.060;2023-09-07T09:03:49;6.45;;;5.78;;
10902;SDS011;5504;47.312;11.060;2023-09-07T09:06:19;6.40;;;5.80;;
10902;SDS011;5504;47.312;11.060;2023-09-07T09:08:49;6.30;;;5.80;;
10902;SDS011;5504;47.312;11.060;2023-09-07T09:11:17;5.82;;;5.32;;
10902;SDS011;5504;47.312;11.060;2023-09-07T09:13:43;5.60;;;5.10;;
10902;SDS011;5504;47.312;11.060;2023-09-07T09:16:10;6.13;;;5.63;;
10902;SDS011;5504;47.312;11.060;2023-09-07T09:18:36;5.60;;;5.10;;
10902;SDS011;5504;47.312;11.060;2023-09-07T09:21:03;5.78;;;5.28;;
10902;SDS011;5504;47.312;11.060;2023-09-07T09:23:33;5.60;;;5.10;;
10902;SDS011;5504;47.312;11.060;2023-09-07T09:26:02;5.20;;;4.80;;
10902;SDS011;5504;47.312;11.060;2023-09-07T09:28:30;5.60;;;5.07;;
10902;SDS011;5504;47.312;11.060;2023-09-07T09:30:57;5.60;;;5.00;;
10902;SDS011;5504;47.312;11.060;2023-09-07T09:33:24;6.22;;;5.63;;
10902;SDS011;5504;47.312;11.060;2023-09-07T09:35:51;5.63;;;5.13;;
10902;SDS011;5504;47.312;11.060;2023-09-07T09:38:18;6.28;;;5.07;;
10902;SDS011;5504;47.312;11.060;2023-09-07T09:40:44;6.13;;;5.63;;
10902;SDS011;5504;47.312;11.060;2023-09-07T09:43:10;5.72;;;5.22;;
10902;SDS011;5504;47.312;11.060;2023-09-07T09:45:37;5.85;;;5.35;;
10902;SDS011;5504;47.312;11.060;2023-09-07T09:48:03;5.90;;;5.40;;
10902;SDS011;5504;47.312;11.060;2023-09-07T09:50:31;5.57;;;5.18;;
10902;SDS011;5504;47.312;11.060;2023-09-07T09:53:02;5.97;;;5.30;;
10902;SDS011;5504;47.312;11.060;2023-09-07T09:55:34;6.05;;;5.50;;
10902;SDS011;5504;47.312;11.060;2023-09-07T09:58:00;6.07;;;5.57;;
10902;SDS011;5504;47.312;11.060;2023-09-07T10:00:26;6.72;;;5.93;;
10902;SDS011;5504;47.312;11.060;2023-09-07T10:03:10;6.13;;;5.53;;
10902;SDS011;5504;47.312;11.060;2023-09-07T10:05:39;5.60;;;5.20;;
10902;SDS011;5504;47.312;11.060;2023-09-07T10:08:14;6.20;;;5.70;;
10902;SDS011;5504;47.312;11.060;2023-09-07T10:10:42;6.13;;;5.63;;
10902;SDS011;5504;47.312;11.060;2023-09-07T10:13:08;6.25;;;5.75;;
10902;SDS011;5504;47.312;11.060;2023-09-07T10:15:34;6.03;;;5.53;;
10902;SDS011;5504;47.312;11.060;2023-09-07T10:20:50;5.90;;;5.40;;
10902;SDS011;5504;47.312;11.060;2023-09-07T10:23:33;6.50;;;5.80;;
10902;SDS011;5504;47.312;11.060;2023-09-07T10:26:00;6.03;;;5.50;;
10902;SDS011;5504;47.312;11.060;2023-09-07T10:28:29;6.03;;;5.53;;
10902;SDS011;5504;47.312;11.060;2023-09-07T10:31:04;6.10;;;5.60;;
10902;SDS011;5504;47.312;11.060;2023-09-07T10:33:32;6.03;;;5.43;;
10902;SDS011;5504;47.312;11.060;2023-09-07T10:35:59;6.10;;;5.60;;
10902;SDS011;5504;47.312;11.060;2023-09-07T10:38:26;6.15;;;5.65;;
10902;SDS011;5504;47.312;11.060;2023-09-07T10:40:58;6.13;;;5.63;;
10902;SDS011;5504;47.312;11.060;2023-09-07T10:43:29;5.75;;;5.35;;
10902;SDS011;5504;47.312;11.060;2023-09-07T10:45:56;5.78;;;5.28;;
10902;SDS011;5504;47.312;11.060;2023-09-07T10:48:24;5.90;;;5.40;;
10902;SDS011;5504;47.312;11.060;2023-09-07T10:50:50;5.80;;;5.30;;
10902;SDS011;5504;47.312;11.060;2023-09-07T10:53:24;6.13;;;5.55;;
10902;SDS011;5504;47.312;11.060;2023-09-07T10:55:54;6.30;;;5.80;;
10902;SDS011;5504;47.312;11.060;2023-09-07T10:58:29;6.15;;;5.65;;
10902;SDS011;5504;47.312;11.060;2023-09-07T11:00:56;5.55;;;5.15;;
10902;SDS011;5504;47.312;11.060;2023-09-07T11:03:22;5.90;;;5.30;;
10902;SDS011;5504;47.312;11.060;2023-09-07T11:05:49;6.03;;;5.53;;
10902;SDS011;5504;47.312;11.060;2023-09-07T11:08:18;5.80;;;5.30;;
10902;SDS011;5504;47.312;11.060;2023-09-07T11:10:44;5.95;;;5.45;;
10902;SDS011;5504;47.312;11.060;2023-09-07T11:13:10;5.38;;;4.90;;
10902;SDS011;5504;47.312;11.060;2023-09-07T11:15:36;5.82;;;5.32;;
10902;SDS011;5504;47.312;11.060;2023-09-07T11:18:06;5.28;;;4.88;;
10902;SDS011;5504;47.312;11.060;2023-09-07T11:20:33;5.18;;;4.68;;
10902;SDS011;5504;47.312;11.060;2023-09-07T11:23:02;5.55;;;5.05;;
10902;SDS011;5504;47.312;11.060;2023-09-07T11:25:38;5.22;;;4.72;;
10902;SDS011;5504;47.312;11.060;2023-09-07T11:28:04;5.10;;;4.70;;
10902;SDS011;5504;47.312;11.060;2023-09-07T11:30:31;5.00;;;4.60;;
10902;SDS011;5504;47.312;11.060;2023-09-07T11:33:04;4.57;;;4.20;;
10902;SDS011;5504;47.312;11.060;2023-09-07T11:35:32;4.97;;;4.57;;
10902;SDS011;5504;47.312;11.060;2023-09-07T11:37:59;5.03;;;4.57;;
10902;SDS011;5504;47.312;11.060;2023-09-07T11:40:25;6.40;;;5.05;;
10902;SDS011;5504;47.312;11.060;2023-09-07T11:42:51;5.82;;;4.70;;
10902;SDS011;5504;47.312;11.060;2023-09-07T11:45:17;5.28;;;4.88;;
10902;SDS011;5504;47.312;11.060;2023-09-07T11:47:44;4.82;;;4.43;;
10902;SDS011;5504;47.312;11.060;2023-09-07T11:50:10;5.30;;;4.80;;
10902;SDS011;5504;47.312;11.060;2023-09-07T11:52:35;4.90;;;4.50;;
10902;SDS011;5504;47.312;11.060;2023-09-07T11:55:01;5.68;;;5.18;;
10902;SDS011;5504;47.312;11.060;2023-09-07T11:57:28;5.00;;;4.60;;
10902;SDS011;5504;47.312;11.060;2023-09-07T11:59:54;5.38;;;4.88;;
10902;SDS011;5504;47.312;11.060;2023-09-07T12:02:20;4.97;;;4.53;;
10902;SDS011;5504;47.312;11.060;2023-09-07T12:04:46;5.47;;;4.90;;
10902;SDS011;5504;47.312;11.060;2023-09-07T12:07:13;5.57;;;4.95;;
10902;SDS011;5504;47.312;11.060;2023-09-07T12:09:39;5.28;;;4.82;;
10902;SDS011;5504;47.312;11.060;2023-09-07T12:12:05;4.80;;;4.40;;
10902;SDS011;5504;47.312;11.060;2023-09-07T12:14:31;4.80;;;4.40;;
10902;SDS011;5504;47.312;11.060;2023-09-07T12:16:57;5.28;;;4.88;;
10902;SDS011;5504;47.312;11.060;2023-09-07T12:19:23;4.70;;;4.30;;
10902;SDS011;5504;47.312;11.060;2023-09-07T12:21:50;5.00;;;4.50;;
10902;SDS011;5504;47.312;11.060;2023-09-07T12:24:16;5.38;;;4.72;;
10902;SDS011;5504;47.312;11.060;2023-09-07T12:26:42;5.25;;;4.75;;
10902;SDS011;5504;47.312;11.060;2023-09-07T12:29:07;4.60;;;4.30;;
10902;SDS011;5504;47.312;11.060;2023-09-07T12:31:33;4.93;;;4.53;;
10902;SDS011;5504;47.312;11.060;2023-09-07T12:33:59;5.03;;;4.63;;
10902;SDS011;5504;47.312;11.060;2023-09-07T12:36:24;5.55;;;5.05;;
10902;SDS011;5504;47.312;11.060;2023-09-07T12:38:53;5.10;;;4.70;;
10902;SDS011;5504;47.312;11.060;2023-09-07T12:41:19;5.45;;;4.95;;
10902;SDS011;5504;47.312;11.060;2023-09-07T12:43:46;4.80;;;4.40;;
10902;SDS011;5504;47.312;11.060;2023-09-07T12:46:11;5.00;;;4.60;;
10902;SDS011;5504;47.312;11.060;2023-09-07T12:48:37;4.88;;;4.47;;
10902;SDS011;5504;47.312;11.060;2023-09-07T12:51:04;5.55;;;5.05;;
10902;SDS011;5504;47.312;11.060;2023-09-07T12:53:29;5.40;;;4.90;;
10902;SDS011;5504;47.312;11.060;2023-09-07T12:55:55;6.00;;;5.50;;
10902;SDS011;5504;47.312;11.060;2023-09-07T12:58:21;5.53;;;5.03;;
10902;SDS011;5504;47.312;11.060;2023-09-07T13:00:47;5.32;;;4.82;;
10902;SDS011;5504;47.312;11.060;2023-09-07T13:03:13;6.10;;;5.50;;
10902;SDS011;5504;47.312;11.060;2023-09-07T13:05:39;5.95;;;5.45;;
10902;SDS011;5504;47.312;11.060;2023-09-07T13:08:05;5.18;;;4.78;;
10902;SDS011;5504;47.312;11.060;2023-09-07T13:10:32;5.90;;;5.40;;
10902;SDS011;5504;47.312;11.060;2023-09-07T13:12:57;5.60;;;5.18;;
10902;SDS011;5504;47.312;11.060;2023-09-07T13:15:23;6.03;;;5.22;;
10902;SDS011;5504;47.312;11.060;2023-09-07T13:17:49;5.97;;;5.38;;
10902;SDS011;5504;47.312;11.060;2023-09-07T13:20:14;7.72;;;5.72;;
10902;SDS011;5504;47.312;11.060;2023-09-07T13:22:41;6.25;;;5.65;;
10902;SDS011;5504;47.312;11.060;2023-09-07T13:25:07;6.00;;;5.50;;
10902;SDS011;5504;47.312;11.060;2023-09-07T13:27:33;5.90;;;5.40;;
10902;SDS011;5504;47.312;11.060;2023-09-07T13:29:59;5.82;;;5.22;;
10902;SDS011;5504;47.312;11.060;2023-09-07T13:32:26;5.85;;;5.35;;
10902;SDS011;5504;47.312;11.060;2023-09-07T13:34:52;6.20;;;5.60;;
10902;SDS011;5504;47.312;11.060;2023-09-07T13:37:17;5.40;;;4.90;;
10902;SDS011;5504;47.312;11.060;2023-09-07T13:39:43;5.75;;;5.20;;
10902;SDS011;5504;47.312;11.060;2023-09-07T13:42:08;5.55;;;5.03;;
10902;SDS011;5504;47.312;11.060;2023-09-07T13:44:34;5.85;;;5.20;;
10902;SDS011;5504;47.312;11.060;2023-09-07T13:47:00;7.25;;;5.30;;
10902;SDS011;5504;47.312;11.060;2023-09-07T13:49:25;6.15;;;5.55;;
10902;SDS011;5504;47.312;11.060;2023-09-07T13:51:51;5.90;;;5.15;;
10902;SDS011;5504;47.312;11.060;2023-09-07T13:54:17;5.43;;;4.88;;
10902;SDS011;5504;47.312;11.060;2023-09-07T13:56:43;4.88;;;4.43;;
10902;SDS011;5504;47.312;11.060;2023-09-07T13:59:10;5.22;;;4.80;;
10902;SDS011;5504;47.312;11.060;2023-09-07T14:01:36;4.95;;;4.45;;
10902;SDS011;5504;47.312;11.060;2023-09-07T14:04:02;6.30;;;4.80;;
10902;SDS011;5504;47.312;11.060;2023-09-07T14:06:28;5.28;;;4.60;;
10902;SDS011;5504;47.312;11.060;2023-09-07T14:08:54;5.32;;;4.82;;
10902;SDS011;5504;47.312;11.060;2023-09-07T14:11:20;5.30;;;4.80;;
10902;SDS011;5504;47.312;11.060;2023-09-07T14:13:47;5.50;;;4.90;;
10902;SDS011;5504;47.312;11.060;2023-09-07T14:16:17;5.50;;;4.95;;
10902;SDS011;5504;47.312;11.060;2023-09-07T14:18:44;7.47;;;5.30;;
10902;SDS011;5504;47.312;11.060;2023-09-07T14:21:10;5.18;;;4.78;;
10902;SDS011;5504;47.312;11.060;2023-09-07T14:23:36;5.03;;;4.63;;
10902;SDS011;5504;47.312;11.060;2023-09-07T14:26:02;6.13;;;4.60;;
10902;SDS011;5504;47.312;11.060;2023-09-07T14:28:28;6.10;;;4.88;;
10902;SDS011;5504;47.312;11.060;2023-09-07T14:30:53;5.22;;;4.72;;
10902;SDS011;5504;47.312;11.060;2023-09-07T14:33:19;5.60;;;4.75;;
10902;SDS011;5504;47.312;11.060;2023-09-07T14:35:45;5.50;;;4.80;;
10902;SDS011;5504;47.312;11.060;2023-09-07T14:38:12;6.85;;;4.55;;
10902;SDS011;5504;47.312;11.060;2023-09-07T14:40:38;5.00;;;4.53;;
10902;SDS011;5504;47.312;11.060;2023-09-07T14:43:04;4.95;;;4.10;;
10902;SDS011;5504;47.312;11.060;2023-09-07T14:45:30;8.02;;;4.78;;
10902;SDS011;5504;47.312;11.060;2023-09-07T14:47:56;5.03;;;4.53;;
10902;SDS011;5504;47.312;11.060;2023-09-07T14:50:22;4.93;;;4.43;;